createdAt,value
2017-04-08T00:00:08.793Z,37.07
2017-04-08T00:01:14.394Z,36.35
2017-04-08T00:02:19.298Z,37.90
2017-04-08T00:03:25.761Z,38.43
2017-04-08T00:04:31.272Z,37.30
2017-04-08T00:06:49.524Z,38.35
2017-04-08T00:07:54.312Z,37.95
2017-04-08T00:09:00.720Z,39.82
2017-04-08T00:10:06.289Z,38.60
2017-04-08T00:11:11.065Z,40.23
2017-04-08T00:12:16.514Z,38.15
2017-04-08T00:13:22.267Z,39.22
2017-04-08T00:14:27.147Z,39.12
2017-04-08T00:15:33.529Z,38.42
2017-04-08T00:16:38.337Z,39.77
2017-04-08T00:17:43.993Z,37.88
2017-04-08T00:18:48.680Z,39.45
2017-04-08T00:19:54.209Z,38.13
2017-04-08T00:20:58.956Z,40.83
2017-04-08T00:22:04.390Z,38.22
2017-04-08T00:23:10.740Z,38.98
2017-04-08T00:24:16.328Z,39.05
2017-04-08T00:25:21.856Z,39.13
2017-04-08T00:26:26.682Z,40.73
2017-04-08T00:27:33.123Z,40.50
2017-04-08T00:28:38.706Z,39.15
2017-04-08T00:29:43.591Z,40.52
2017-04-08T00:30:50.136Z,40.37
2017-04-08T00:31:55.701Z,38.87
2017-04-08T00:33:00.530Z,38.88
2017-04-08T00:34:06.096Z,38.45
2017-04-08T00:35:10.888Z,37.98
2017-04-08T00:36:16.408Z,39.25
2017-04-08T00:37:22.144Z,41.83
2017-04-08T00:38:27.488Z,41.78
2017-04-08T00:39:33.948Z,40.88
2017-04-08T00:40:39.433Z,40.32
2017-04-08T00:41:45.077Z,39.87
2017-04-08T00:42:50.037Z,39.78
2017-04-08T00:43:55.604Z,42.08
2017-04-08T00:45:02.049Z,41.50
2017-04-08T00:46:06.846Z,41.35
2017-04-08T00:47:12.349Z,41.30
2017-04-08T00:48:17.881Z,42.08
2017-04-08T00:49:22.610Z,39.80
2017-04-08T00:50:27.325Z,41.60
2017-04-08T00:51:33.797Z,40.22
2017-04-08T00:52:38.571Z,40.43
2017-04-08T00:53:44.114Z,43.03
2017-04-08T00:54:50.477Z,41.75
2017-04-08T00:55:56.129Z,41.78
2017-04-08T00:57:01.056Z,40.12
2017-04-08T00:58:07.813Z,42.38
2017-04-08T00:59:14.166Z,41.27
2017-04-08T01:00:24.077Z,44.25
2017-04-08T01:01:31.574Z,43.53
2017-04-08T01:02:36.981Z,42.68
2017-04-08T01:03:43.401Z,42.47
2017-04-08T01:04:48.160Z,41.42
2017-04-08T01:05:54.682Z,43.10
2017-04-08T01:07:00.289Z,41.63
2017-04-08T01:08:05.158Z,42.37
2017-04-08T01:09:10.633Z,45.43
2017-04-08T01:10:16.181Z,46.42
2017-04-08T01:11:21.742Z,47.10
2017-04-08T01:12:27.377Z,43.40
2017-04-08T01:13:32.294Z,44.05
2017-04-08T01:14:37.929Z,44.00
2017-04-08T01:15:43.413Z,43.22
2017-04-08T01:16:49.821Z,43.82
2017-04-08T01:17:55.517Z,42.63
2017-04-08T01:19:01.071Z,42.05
2017-04-08T01:20:06.693Z,41.55
2017-04-08T01:21:12.560Z,42.87
2017-04-08T01:22:18.582Z,45.97
2017-04-08T01:23:24.873Z,45.32
2017-04-08T01:24:29.833Z,46.72
2017-04-08T01:25:35.354Z,44.57
2017-04-08T01:26:40.960Z,44.32
2017-04-08T01:27:47.290Z,44.10
2017-04-08T01:28:53.088Z,43.27
2017-04-08T01:29:58.128Z,42.95
2017-04-08T01:31:02.901Z,43.38
2017-04-08T01:32:09.226Z,42.63
2017-04-08T01:33:14.152Z,43.90
2017-04-08T01:34:20.433Z,43.37
2017-04-08T01:35:25.308Z,42.95
2017-04-08T01:36:30.969Z,42.25
2017-04-08T01:37:35.678Z,42.22
2017-04-08T01:38:42.020Z,42.23
2017-04-08T01:39:46.841Z,41.33
2017-04-08T01:40:52.410Z,39.22
2017-04-08T01:41:57.389Z,39.32
2017-04-08T01:43:03.057Z,38.43
2017-04-08T01:44:08.505Z,40.25
2017-04-08T01:45:14.063Z,40.08
2017-04-08T01:46:19.805Z,42.37
2017-04-08T01:47:24.700Z,40.80
2017-04-08T01:48:30.237Z,40.60
2017-04-08T01:49:35.021Z,40.10
2017-04-08T01:50:41.398Z,40.87
2017-04-08T01:51:46.932Z,40.32
2017-04-08T01:52:53.582Z,40.13
2017-04-08T01:53:58.378Z,37.80
2017-04-08T01:55:05.501Z,38.73
2017-04-08T01:56:11.473Z,40.52
2017-04-08T01:57:16.265Z,43.13
2017-04-08T01:58:22.805Z,39.62
2017-04-08T01:59:28.368Z,41.20
2017-04-08T02:00:33.289Z,41.17
2017-04-08T02:01:39.700Z,41.07
2017-04-08T02:02:44.417Z,39.73
2017-04-08T02:03:50.804Z,41.82
2017-04-08T02:04:55.573Z,39.17
2017-04-08T02:06:00.251Z,40.50
2017-04-08T02:07:06.650Z,41.87
2017-04-08T02:08:11.530Z,40.53
2017-04-08T02:09:17.941Z,38.65
2017-04-08T02:10:22.709Z,39.80
2017-04-08T02:11:27.426Z,38.73
2017-04-08T02:12:33.793Z,37.65
2017-04-08T02:13:39.424Z,39.68
2017-04-08T02:14:44.280Z,40.97
2017-04-08T02:15:49.882Z,39.95
2017-04-08T02:16:56.288Z,39.15
2017-04-08T02:18:01.869Z,38.90
2017-04-08T02:19:06.766Z,41.32
2017-04-08T02:20:13.124Z,42.35
2017-04-08T02:21:17.862Z,40.18
2017-04-08T02:22:23.478Z,38.72
2017-04-08T02:23:28.933Z,38.48
2017-04-08T02:24:33.915Z,38.72
2017-04-08T02:25:39.444Z,37.58
2017-04-08T02:26:45.068Z,37.30
2017-04-08T02:27:50.549Z,37.43
2017-04-08T02:28:56.182Z,38.92
2017-04-08T02:30:01.743Z,39.58
2017-04-08T02:31:06.660Z,40.07
2017-04-08T02:32:12.362Z,38.40
2017-04-08T02:33:18.741Z,38.10
2017-04-08T02:34:23.618Z,39.55
2017-04-08T02:35:28.413Z,39.22
2017-04-08T02:36:34.938Z,37.22
2017-04-08T02:37:40.525Z,38.65
2017-04-08T02:38:45.289Z,38.93
2017-04-08T02:39:50.921Z,38.37
2017-04-08T02:40:56.469Z,39.33
2017-04-08T02:42:02.022Z,39.40
2017-04-08T02:43:07.696Z,38.13
2017-04-08T02:44:13.925Z,40.12
2017-04-08T02:45:19.896Z,40.03
2017-04-08T02:46:25.335Z,41.05
2017-04-08T02:47:31.428Z,40.78
2017-04-08T02:48:36.752Z,38.25
2017-04-08T02:49:42.388Z,39.90
2017-04-08T02:50:54.629Z,39.73
2017-04-08T02:51:59.745Z,37.15
2017-04-08T02:53:06.241Z,38.80
2017-04-08T02:54:11.073Z,37.37
2017-04-08T02:55:16.577Z,38.93
2017-04-08T02:56:22.152Z,38.17
2017-04-08T02:57:28.557Z,38.32
2017-04-08T02:58:33.506Z,38.98
2017-04-08T02:59:39.011Z,38.77
2017-04-08T03:00:43.661Z,37.15
2017-04-08T03:01:50.081Z,37.20
2017-04-08T03:02:55.680Z,38.27
2017-04-08T03:04:00.480Z,38.57
2017-04-08T03:05:06.745Z,41.23
2017-04-08T03:06:12.289Z,40.87
2017-04-08T03:07:18.118Z,41.57
2017-04-08T03:08:23.205Z,42.17
2017-04-08T03:09:29.605Z,42.02
2017-04-08T03:10:34.307Z,40.33
2017-04-08T03:11:40.744Z,40.53
2017-04-08T03:12:45.622Z,41.87
2017-04-08T03:13:50.245Z,41.10
2017-04-08T03:14:55.845Z,40.25
2017-04-08T03:16:01.365Z,40.87
2017-04-08T03:17:06.304Z,41.37
2017-04-08T03:18:11.937Z,41.12
2017-04-08T03:19:17.441Z,40.75
2017-04-08T03:20:22.349Z,41.87
2017-04-08T03:21:27.761Z,41.05
2017-04-08T03:22:32.656Z,41.87
2017-04-08T03:23:38.178Z,41.65
2017-04-08T03:24:42.936Z,41.45
2017-04-08T03:25:48.461Z,42.20
2017-04-08T03:26:53.269Z,42.65
2017-04-08T03:27:58.056Z,42.50
2017-04-08T03:29:04.313Z,42.08
2017-04-08T03:30:09.196Z,41.28
2017-04-08T03:31:15.612Z,41.45
2017-04-08T03:32:20.528Z,39.28
2017-04-08T03:33:25.920Z,39.62
2017-04-08T03:34:30.798Z,40.53
2017-04-08T03:35:36.432Z,41.07
2017-04-08T03:36:42.076Z,41.65
2017-04-08T03:37:47.716Z,38.13
2017-04-08T03:38:54.137Z,41.05
2017-04-08T03:39:59.880Z,40.60
2017-04-08T03:41:05.549Z,39.93
2017-04-08T03:42:10.382Z,41.45
2017-04-08T03:43:16.090Z,40.72
2017-04-08T03:44:22.513Z,39.95
2017-04-08T03:45:28.198Z,40.22
2017-04-08T03:46:32.996Z,42.27
2017-04-08T03:47:38.685Z,39.92
2017-04-08T03:48:44.217Z,39.25
2017-04-08T03:49:49.657Z,40.87
2017-04-08T03:50:55.200Z,41.55
2017-04-08T03:52:00.764Z,42.50
2017-04-08T03:53:07.360Z,39.77
2017-04-08T03:54:12.230Z,41.15
2017-04-08T03:55:16.948Z,40.20
2017-04-08T03:56:22.491Z,41.25
2017-04-08T03:57:27.136Z,41.12
2017-04-08T03:58:34.456Z,41.20
2017-04-08T03:59:39.540Z,40.88
2017-04-08T04:00:45.120Z,39.83
2017-04-08T04:01:50.685Z,39.35
2017-04-08T04:02:56.334Z,37.95
2017-04-08T04:04:02.041Z,39.45
2017-04-08T04:05:08.445Z,40.58
2017-04-08T04:06:13.225Z,39.17
2017-04-08T04:07:19.540Z,37.67
2017-04-08T04:08:25.291Z,38.25
2017-04-08T04:09:30.061Z,40.17
2017-04-08T04:10:35.533Z,40.12
2017-04-08T04:11:41.137Z,38.00
2017-04-08T04:12:46.041Z,39.75
2017-04-08T04:13:52.518Z,37.48
2017-04-08T04:14:58.329Z,38.63
2017-04-08T04:16:03.790Z,40.10
2017-04-08T04:17:09.445Z,39.87
2017-04-08T04:18:15.093Z,40.35
2017-04-08T04:19:20.063Z,40.80
2017-04-08T04:20:26.500Z,40.15
2017-04-08T04:21:32.277Z,38.97
2017-04-08T04:22:37.221Z,39.55
2017-04-08T04:23:42.750Z,39.67
2017-04-08T04:24:47.561Z,37.83
2017-04-08T04:25:53.183Z,39.07
2017-04-08T04:26:59.564Z,39.22
2017-04-08T04:28:04.633Z,39.12
2017-04-08T04:29:10.262Z,37.97
2017-04-08T04:30:14.932Z,39.37
2017-04-08T04:31:20.449Z,37.48
2017-04-08T04:32:26.089Z,40.17
2017-04-08T04:33:31.699Z,40.97
2017-04-08T04:34:37.317Z,39.30
2017-04-08T04:35:42.952Z,41.22
2017-04-08T04:36:48.757Z,40.40
2017-04-08T04:37:54.421Z,40.25
2017-04-08T04:38:59.353Z,40.12
2017-04-08T04:40:06.409Z,40.65
2017-04-08T04:41:12.391Z,42.40
2017-04-08T04:42:17.321Z,42.58
2017-04-08T04:43:22.853Z,41.33
2017-04-08T04:44:28.462Z,42.13
2017-04-08T04:45:34.094Z,43.60
2017-04-08T04:46:39.657Z,40.92
2017-04-08T04:47:46.046Z,44.05
2017-04-08T04:48:51.642Z,42.88
2017-04-08T04:49:56.474Z,42.47
2017-04-08T04:51:01.978Z,42.38
2017-04-08T04:52:08.335Z,44.48
2017-04-08T04:53:14.865Z,42.28
2017-04-08T04:54:20.489Z,44.05
2017-04-08T04:55:26.004Z,43.45
2017-04-08T04:56:30.741Z,41.70
2017-04-08T04:57:35.569Z,42.47
2017-04-08T04:58:41.201Z,41.98
2017-04-08T04:59:47.669Z,43.67
2017-04-08T05:00:53.287Z,43.10
2017-04-08T05:01:58.817Z,41.87
2017-04-08T05:03:03.711Z,41.77
2017-04-08T05:04:10.105Z,44.73
2017-04-08T05:05:15.586Z,40.75
2017-04-08T05:06:21.333Z,43.63
2017-04-08T05:07:26.048Z,42.37
2017-04-08T05:08:31.697Z,42.50
2017-04-08T05:09:37.145Z,43.80
2017-04-08T05:10:42.097Z,42.73
2017-04-08T05:11:47.578Z,43.38
2017-04-08T05:12:52.510Z,42.22
2017-04-08T05:13:58.901Z,43.43
2017-04-08T05:15:04.614Z,43.20
2017-04-08T05:16:09.361Z,43.77
2017-04-08T05:17:14.988Z,41.60
2017-04-08T05:18:20.541Z,42.45
2017-04-08T05:19:26.052Z,42.85
2017-04-08T05:20:30.921Z,44.57
2017-04-08T05:21:36.541Z,45.42
2017-04-08T05:22:42.157Z,44.38
2017-04-08T05:23:47.747Z,46.10
2017-04-08T05:24:53.172Z,44.08
2017-04-08T05:25:58.809Z,45.38
2017-04-08T05:27:04.410Z,43.03
2017-04-08T05:28:10.009Z,44.48
2017-04-08T05:29:15.785Z,45.55
2017-04-08T05:30:20.616Z,43.80
2017-04-08T05:31:26.193Z,43.05
2017-04-08T05:32:31.857Z,43.55
2017-04-08T05:33:38.128Z,44.62
2017-04-08T05:34:43.032Z,42.48
2017-04-08T05:35:49.328Z,44.08
2017-04-08T05:36:54.873Z,45.55
2017-04-08T05:37:59.597Z,46.08
2017-04-08T05:39:06.193Z,46.13
2017-04-08T05:40:11.777Z,44.07
2017-04-08T05:41:16.576Z,44.20
2017-04-08T05:42:21.397Z,43.72
2017-04-08T05:43:26.824Z,45.68
2017-04-08T05:44:32.321Z,44.17
2017-04-08T05:45:38.856Z,45.02
2017-04-08T05:46:43.660Z,43.17
2017-04-08T05:47:48.382Z,44.08
2017-04-08T05:48:54.697Z,44.00
2017-04-08T05:50:00.538Z,44.93
2017-04-08T05:51:06.347Z,45.32
2017-04-08T05:52:12.072Z,44.80
2017-04-08T05:53:18.633Z,44.38
2017-04-08T05:54:23.432Z,43.75
2017-04-08T05:55:28.976Z,46.53
2017-04-08T05:56:34.620Z,43.65
2017-04-08T05:57:39.494Z,44.80
2017-04-08T05:58:44.365Z,48.23
2017-04-08T05:59:50.703Z,46.93
2017-04-08T06:00:55.514Z,46.40
2017-04-08T06:02:01.150Z,43.70
2017-04-08T06:03:06.596Z,45.93
2017-04-08T06:04:12.238Z,44.90
2017-04-08T06:05:17.751Z,43.87
2017-04-08T06:06:23.382Z,43.70
2017-04-08T06:07:28.873Z,46.83
2017-04-08T06:08:34.608Z,45.45
2017-04-08T06:09:40.573Z,47.02
2017-04-08T06:10:46.129Z,48.20
2017-04-08T06:11:51.668Z,49.83
2017-04-08T06:12:56.489Z,46.15
2017-04-08T06:14:02.881Z,44.62
2017-04-08T06:15:07.635Z,47.27
2017-04-08T06:16:12.260Z,45.20
2017-04-08T06:17:16.945Z,46.63
2017-04-08T06:18:23.274Z,47.47
2017-04-08T06:19:28.242Z,45.38
2017-04-08T06:20:33.955Z,45.03
2017-04-08T06:21:39.580Z,45.73
2017-04-08T06:22:44.425Z,44.80
2017-04-08T06:23:50.041Z,45.83
2017-04-08T06:24:54.704Z,47.15
2017-04-08T06:25:59.508Z,44.67
2017-04-08T06:27:05.021Z,45.00
2017-04-08T06:28:10.620Z,46.78
2017-04-08T06:29:16.076Z,45.63
2017-04-08T06:30:20.997Z,48.33
2017-04-08T06:31:26.614Z,46.67
2017-04-08T06:32:32.360Z,48.43
2017-04-08T06:33:37.876Z,48.60
2017-04-08T06:34:42.585Z,48.07
2017-04-08T06:35:48.909Z,43.65
2017-04-08T06:36:54.565Z,45.55
2017-04-08T06:38:00.159Z,45.13
2017-04-08T06:39:05.976Z,45.20
2017-04-08T06:40:11.476Z,45.97
2017-04-08T06:41:16.344Z,44.85
2017-04-08T06:42:21.884Z,46.45
2017-04-08T06:43:26.734Z,45.78
2017-04-08T06:44:32.973Z,46.37
2017-04-08T06:45:37.906Z,45.88
2017-04-08T06:46:43.589Z,45.88
2017-04-08T06:47:50.117Z,46.22
2017-04-08T06:48:55.732Z,48.12
2017-04-08T06:50:00.545Z,45.15
2017-04-08T06:51:06.594Z,46.63
2017-04-08T06:52:12.684Z,48.70
2017-04-08T06:53:17.649Z,47.67
2017-04-08T06:54:24.100Z,48.08
2017-04-08T06:55:28.892Z,46.22
2017-04-08T06:56:33.626Z,46.20
2017-04-08T06:57:39.210Z,47.07
2017-04-08T06:58:44.829Z,46.65
2017-04-08T06:59:51.231Z,47.35
2017-04-08T07:00:57.245Z,45.90
2017-04-08T07:02:02.749Z,48.53
2017-04-08T07:03:07.386Z,45.77
2017-04-08T07:04:13.073Z,46.02
2017-04-08T07:05:18.686Z,46.78
2017-04-08T07:06:24.283Z,45.08
2017-04-08T07:07:29.717Z,47.10
2017-04-08T07:08:34.741Z,47.62
2017-04-08T07:09:41.384Z,46.43
2017-04-08T07:10:47.852Z,48.42
2017-04-08T07:11:52.729Z,45.23
2017-04-08T07:12:57.412Z,46.30
2017-04-08T07:14:02.072Z,45.23
2017-04-08T07:15:07.612Z,43.27
2017-04-08T07:16:13.334Z,45.25
2017-04-08T07:17:18.133Z,41.13
2017-04-08T07:18:22.899Z,41.12
2017-04-08T07:19:28.392Z,43.60
2017-04-08T07:20:34.013Z,43.32
2017-04-08T07:21:39.713Z,43.32
2017-04-08T07:22:44.553Z,42.18
2017-04-08T07:23:50.005Z,42.60
2017-04-08T07:24:55.600Z,41.27
2017-04-08T07:26:01.248Z,41.83
2017-04-08T07:27:06.866Z,42.50
2017-04-08T07:28:12.548Z,41.58
2017-04-08T07:29:18.352Z,42.63
2017-04-08T07:30:23.922Z,41.60
2017-04-08T07:31:29.604Z,41.60
2017-04-08T07:32:35.304Z,42.55
2017-04-08T07:33:40.901Z,43.37
2017-04-08T07:34:46.455Z,44.18
2017-04-08T07:35:52.858Z,43.75
2017-04-08T07:36:58.465Z,43.55
2017-04-08T07:38:03.225Z,41.78
2017-04-08T07:39:08.808Z,42.80
2017-04-08T07:40:14.277Z,43.03
2017-04-08T07:41:19.871Z,41.57
2017-04-08T07:42:24.798Z,41.27
2017-04-08T07:43:30.401Z,41.67
2017-04-08T07:44:36.549Z,42.37
2017-04-08T07:45:42.093Z,41.65
2017-04-08T07:46:46.845Z,41.67
2017-04-08T07:47:52.376Z,45.82
2017-04-08T07:48:57.960Z,46.40
2017-04-08T07:50:03.684Z,44.53
2017-04-08T07:51:09.250Z,44.67
2017-04-08T07:52:14.689Z,43.52
2017-04-08T07:53:21.227Z,47.18
2017-04-08T07:54:26.041Z,43.82
2017-04-08T07:55:32.485Z,44.72
2017-04-08T07:56:38.120Z,42.70
2017-04-08T07:57:43.529Z,43.80
2017-04-08T07:58:49.289Z,46.27
2017-04-08T07:59:54.992Z,45.33
2017-04-08T08:01:00.720Z,44.00
2017-04-08T08:02:05.454Z,46.43
2017-04-08T08:03:11.921Z,44.38
2017-04-08T08:04:17.564Z,44.82
2017-04-08T08:05:22.469Z,44.92
2017-04-08T08:06:27.241Z,44.43
2017-04-08T08:07:33.656Z,45.43
2017-04-08T08:08:38.568Z,46.08
2017-04-08T08:09:44.828Z,44.47
2017-04-08T08:10:50.458Z,45.70
2017-04-08T08:11:55.265Z,47.30
2017-04-08T08:13:01.670Z,44.77
2017-04-08T08:14:06.464Z,45.55
2017-04-08T08:15:12.844Z,47.28
2017-04-08T08:16:17.776Z,47.58
2017-04-08T08:17:23.445Z,46.80
2017-04-08T08:18:29.761Z,47.85
2017-04-08T08:19:35.445Z,50.10
2017-04-08T08:20:41.272Z,46.23
2017-04-08T08:21:46.005Z,48.07
2017-04-08T08:22:51.505Z,47.25
2017-04-08T08:23:57.216Z,44.67
2017-04-08T08:25:01.960Z,47.73
2017-04-08T08:26:08.328Z,46.57
2017-04-08T08:27:13.805Z,43.68
2017-04-08T08:28:18.637Z,46.15
2017-04-08T08:29:24.865Z,46.42
2017-04-08T08:30:29.836Z,46.02
2017-04-08T08:31:35.532Z,47.52
2017-04-08T08:32:41.892Z,44.92
2017-04-08T08:33:46.750Z,46.98
2017-04-08T08:34:52.220Z,46.43
2017-04-08T08:35:57.888Z,45.90
2017-04-08T08:37:02.748Z,46.33
2017-04-08T08:38:08.977Z,47.03
2017-04-08T08:39:13.784Z,48.05
2017-04-08T08:40:19.337Z,46.32
2017-04-08T08:41:24.957Z,45.48
2017-04-08T08:42:30.075Z,44.83
2017-04-08T08:43:35.506Z,47.53
2017-04-08T08:44:40.992Z,46.38
2017-04-08T08:45:46.277Z,45.80
2017-04-08T08:46:51.348Z,46.48
2017-04-08T08:47:56.041Z,46.87
2017-04-08T08:49:02.269Z,45.72
2017-04-08T08:50:07.213Z,45.13
2017-04-08T08:51:12.904Z,45.85
2017-04-08T08:52:18.499Z,45.10
2017-04-08T08:53:24.895Z,46.38
2017-04-08T08:54:29.649Z,46.65
2017-04-08T08:55:35.273Z,45.63
2017-04-08T08:56:41.725Z,48.28
2017-04-08T08:57:46.789Z,48.83
2017-04-08T08:58:53.169Z,48.47
2017-04-08T08:59:57.914Z,47.80
2017-04-08T09:01:04.245Z,48.55
2017-04-08T09:02:09.007Z,49.25
2017-04-08T09:03:13.720Z,48.05
2017-04-08T09:04:19.413Z,48.48
2017-04-08T09:05:25.058Z,46.90
2017-04-08T09:06:30.586Z,50.55
2017-04-08T09:07:37.020Z,48.00
2017-04-08T09:08:43.356Z,49.13
2017-04-08T09:09:48.652Z,49.02
2017-04-08T09:10:54.954Z,48.77
2017-04-08T09:11:59.797Z,48.47
2017-04-08T09:13:05.337Z,49.93
2017-04-08T09:14:10.127Z,50.98
2017-04-08T09:15:14.826Z,48.77
2017-04-08T09:16:21.132Z,52.13
2017-04-08T09:17:25.965Z,48.97
2017-04-08T09:18:31.560Z,49.50
2017-04-08T09:19:37.213Z,48.28
2017-04-08T09:20:43.648Z,50.63
2017-04-08T09:21:48.277Z,49.62
2017-04-08T09:22:52.974Z,50.43
2017-04-08T09:23:59.437Z,49.22
2017-04-08T09:25:04.264Z,48.58
2017-04-08T09:26:09.012Z,51.02
2017-04-08T09:27:14.560Z,50.00
2017-04-08T09:28:20.056Z,49.03
2017-04-08T09:29:25.669Z,50.23
2017-04-08T09:30:31.157Z,49.85
2017-04-08T09:31:37.576Z,49.03
2017-04-08T09:32:42.310Z,49.30
2017-04-08T09:33:48.644Z,48.03
2017-04-08T09:34:53.539Z,49.80
2017-04-08T09:35:59.043Z,50.12
2017-04-08T09:37:03.901Z,47.85
2017-04-08T09:38:09.414Z,49.18
2017-04-08T09:39:14.845Z,48.67
2017-04-08T09:40:20.449Z,48.22
2017-04-08T09:41:26.909Z,48.58
2017-04-08T09:42:32.469Z,47.68
2017-04-08T09:43:38.131Z,44.65
2017-04-08T09:44:43.041Z,47.68
2017-04-08T09:45:49.312Z,47.42
2017-04-08T09:46:54.200Z,47.45
2017-04-08T09:47:59.880Z,46.60
2017-04-08T09:49:06.042Z,46.92
2017-04-08T09:50:11.606Z,48.08
2017-04-08T09:51:16.489Z,47.93
2017-04-08T09:52:21.185Z,46.35
2017-04-08T09:53:25.912Z,48.13
2017-04-08T09:54:31.473Z,47.42
2017-04-08T09:55:36.188Z,47.05
2017-04-08T09:56:42.573Z,50.45
2017-04-08T09:57:48.213Z,48.25
2017-04-08T09:58:53.032Z,47.03
2017-04-08T09:59:59.305Z,44.98
2017-04-08T10:01:04.159Z,46.30
2017-04-08T10:02:10.513Z,44.83
2017-04-08T10:03:16.189Z,45.68
2017-04-08T10:04:21.996Z,44.78
2017-04-08T10:05:26.637Z,46.08
2017-04-08T10:06:32.165Z,46.87
2017-04-08T10:07:37.003Z,49.52
2017-04-08T10:08:43.341Z,47.32
2017-04-08T10:09:48.944Z,47.65
2017-04-08T10:10:54.592Z,46.00
2017-04-08T10:12:00.166Z,47.85
2017-04-08T10:13:05.141Z,47.87
2017-04-08T10:14:10.740Z,47.53
2017-04-08T10:15:16.259Z,46.98
2017-04-08T10:16:20.993Z,48.32
2017-04-08T10:17:26.501Z,49.07
2017-04-08T10:18:32.204Z,47.63
2017-04-08T10:19:38.494Z,44.80
2017-04-08T10:20:43.530Z,48.48
2017-04-08T10:21:49.922Z,49.55
2017-04-08T10:22:54.700Z,47.62
2017-04-08T10:23:59.382Z,49.53
2017-04-08T10:25:04.904Z,48.90
2017-04-08T10:26:09.720Z,50.90
2017-04-08T10:27:15.236Z,49.15
2017-04-08T10:28:20.873Z,49.73
2017-04-08T10:29:25.897Z,49.30
2017-04-08T10:30:30.612Z,49.13
2017-04-08T10:31:36.188Z,48.77
2017-04-08T10:32:41.669Z,50.23
2017-04-08T10:33:46.472Z,48.50
2017-04-08T10:34:52.884Z,51.97
2017-04-08T10:35:58.540Z,49.97
2017-04-08T10:37:04.270Z,50.70
2017-04-08T10:38:08.904Z,49.10
2017-04-08T10:39:14.384Z,49.57
2017-04-08T10:40:20.859Z,52.53
2017-04-08T10:41:26.495Z,58.85
2017-04-08T10:42:32.197Z,58.10
2017-04-08T10:43:37.947Z,61.08
2017-04-08T10:44:43.396Z,63.42
2017-04-08T10:45:49.171Z,66.67
2017-04-08T10:46:53.952Z,64.27
2017-04-08T10:48:00.329Z,55.88
2017-04-08T10:49:05.998Z,57.82
2017-04-08T10:50:11.533Z,61.97
2017-04-08T10:51:16.457Z,60.35
2017-04-08T10:52:22.541Z,58.62
2017-04-08T10:53:27.658Z,59.15
2017-04-08T10:54:34.102Z,57.53
2017-04-08T10:55:38.896Z,60.22
2017-04-08T10:56:45.249Z,64.02
2017-04-08T10:57:50.180Z,71.62
2017-04-08T10:58:55.680Z,67.12
2017-04-08T11:00:01.253Z,73.47
2017-04-08T11:01:07.592Z,65.37
2017-04-08T11:02:13.316Z,65.33
2017-04-08T11:03:18.852Z,66.78
2017-04-08T11:04:24.651Z,64.45
2017-04-08T11:05:29.527Z,63.80
2017-04-08T11:06:35.162Z,65.10
2017-04-08T11:07:39.846Z,64.78
2017-04-08T11:08:45.316Z,65.97
2017-04-08T11:09:50.807Z,69.28
2017-04-08T11:10:56.309Z,134.42
2017-04-08T11:12:00.962Z,64.38
2017-04-08T11:13:07.486Z,63.93
2017-04-08T11:14:12.216Z,60.95
2017-04-08T11:15:18.658Z,61.73
2017-04-08T11:16:24.273Z,65.48
2017-04-08T11:17:29.853Z,59.73
2017-04-08T11:18:34.644Z,58.63
2017-04-08T11:19:40.193Z,59.82
2017-04-08T11:20:45.933Z,58.50
2017-04-08T11:21:50.894Z,56.55
2017-04-08T11:22:56.615Z,55.72
2017-04-08T11:24:02.865Z,56.28
2017-04-08T11:25:08.395Z,57.73
2017-04-08T11:26:14.044Z,54.48
2017-04-08T11:27:18.969Z,57.30
2017-04-08T11:28:24.551Z,57.93
2017-04-08T11:29:30.853Z,51.98
2017-04-08T11:30:35.694Z,55.12
2017-04-08T11:31:41.334Z,56.12
2017-04-08T11:32:46.918Z,50.83
2017-04-08T11:33:52.544Z,52.48
2017-04-08T11:34:58.309Z,52.53
2017-04-08T11:36:03.937Z,52.55
2017-04-08T11:37:08.941Z,51.63
2017-04-08T11:38:14.516Z,51.37
2017-04-08T11:39:20.202Z,51.12
2017-04-08T11:40:25.660Z,51.43
2017-04-08T11:41:30.513Z,51.17
2017-04-08T11:42:36.021Z,50.90
2017-04-08T11:43:40.953Z,53.35
2017-04-08T11:44:48.108Z,52.00
2017-04-08T11:45:53.924Z,50.13
2017-04-08T11:46:59.605Z,48.25
2017-04-08T11:48:04.576Z,48.57
2017-04-08T11:49:11.003Z,50.33
2017-04-08T11:50:16.108Z,52.48
2017-04-08T11:51:21.669Z,50.05
2017-04-08T11:52:27.293Z,52.00
2017-04-08T11:53:32.921Z,53.22
2017-04-08T11:54:38.496Z,50.63
2017-04-08T11:55:43.272Z,49.45
2017-04-08T11:56:49.637Z,47.68
2017-04-08T11:57:54.570Z,48.37
2017-04-08T11:59:00.076Z,53.02
2017-04-08T12:00:05.708Z,55.03
2017-04-08T12:01:11.231Z,52.93
2017-04-08T12:02:17.501Z,54.00
2017-04-08T12:03:22.433Z,50.12
2017-04-08T12:04:28.755Z,50.70
2017-04-08T12:05:33.718Z,50.52
2017-04-08T12:06:38.383Z,50.32
2017-04-08T12:07:44.685Z,49.35
2017-04-08T12:08:49.716Z,46.28
2017-04-08T12:09:55.222Z,44.40
2017-04-08T12:11:00.786Z,43.90
2017-04-08T12:12:06.652Z,40.73
2017-04-08T12:13:12.425Z,36.28
2017-04-08T12:14:18.205Z,44.57
2017-04-08T12:15:23.906Z,46.75
2017-04-08T12:16:29.602Z,47.92
2017-04-08T12:17:36.032Z,48.88
2017-04-08T12:18:42.024Z,50.85
2017-04-08T12:19:47.669Z,45.67
2017-04-08T12:20:54.089Z,48.65
2017-04-08T12:21:59.305Z,46.53
2017-04-08T12:23:04.136Z,42.82
2017-04-08T12:24:09.856Z,46.15
2017-04-08T12:25:16.224Z,44.27
2017-04-08T12:26:21.890Z,43.25
2017-04-08T12:27:26.696Z,40.00
2017-04-08T12:28:33.165Z,38.85
2017-04-08T12:29:38.776Z,38.82
2017-04-08T12:30:43.736Z,40.50
2017-04-08T12:31:48.469Z,38.62
2017-04-08T12:32:54.109Z,38.40
2017-04-08T12:33:58.837Z,38.88
2017-04-08T12:35:03.593Z,40.93
2017-04-08T12:36:09.029Z,41.08
2017-04-08T12:37:14.849Z,40.43
2017-04-08T12:38:20.528Z,34.67
2017-04-08T12:39:26.364Z,30.73
2017-04-08T12:40:32.130Z,27.02
2017-04-08T12:41:37.838Z,25.12
2017-04-08T12:42:43.397Z,26.73
2017-04-08T12:43:49.111Z,25.70
2017-04-08T12:44:54.812Z,31.03
2017-04-08T12:45:59.553Z,30.97
2017-04-08T12:47:04.249Z,31.83
2017-04-08T12:48:09.784Z,31.65
2017-04-08T12:49:14.628Z,29.23
2017-04-08T12:50:21.021Z,29.18
2017-04-08T12:51:26.041Z,28.63
2017-04-08T12:52:30.804Z,28.40
2017-04-08T12:53:37.984Z,26.97
2017-04-08T12:54:43.801Z,76.47
2017-04-08T12:55:49.429Z,29.73
2017-04-08T12:56:54.986Z,27.22
2017-04-08T12:58:00.664Z,31.55
2017-04-08T12:59:06.385Z,31.62
2017-04-08T13:00:12.056Z,33.02
2017-04-08T13:01:16.977Z,32.35
2017-04-08T13:02:21.649Z,32.87
2017-04-08T13:03:27.965Z,32.47
2017-04-08T13:04:34.097Z,31.25
2017-04-08T13:05:40.279Z,31.50
2017-04-08T13:06:45.961Z,29.12
2017-04-08T13:07:51.029Z,30.73
2017-04-08T13:08:57.449Z,31.83
2017-04-08T13:10:02.346Z,30.98
2017-04-08T13:11:07.092Z,31.35
2017-04-08T13:12:12.544Z,30.05
2017-04-08T13:13:18.324Z,29.18
2017-04-08T13:14:23.237Z,29.17
2017-04-08T13:15:29.592Z,29.53
2017-04-08T13:16:35.251Z,27.97
2017-04-08T13:17:41.078Z,27.92
2017-04-08T13:18:46.769Z,26.82
2017-04-08T13:19:52.596Z,26.67
2017-04-08T13:20:58.324Z,25.70
2017-04-08T13:22:03.934Z,23.18
2017-04-08T13:23:09.590Z,22.83
2017-04-08T13:24:15.262Z,21.58
2017-04-08T13:25:20.892Z,23.83
2017-04-08T13:26:25.812Z,22.00
2017-04-08T13:27:32.052Z,22.60
2017-04-08T13:28:36.926Z,21.72
2017-04-08T13:29:43.257Z,23.72
2017-04-08T13:30:48.925Z,23.62
2017-04-08T13:31:54.512Z,23.23
2017-04-08T13:33:00.213Z,23.22
2017-04-08T13:34:05.120Z,23.93
2017-04-08T13:35:10.745Z,24.80
2017-04-08T13:36:15.436Z,25.20
2017-04-08T13:37:22.000Z,24.80
2017-04-08T13:38:28.432Z,27.05
2017-04-08T13:39:34.036Z,26.18
2017-04-08T13:40:39.115Z,25.17
2017-04-08T13:41:44.557Z,24.20
2017-04-08T13:42:50.182Z,25.33
2017-04-08T13:43:55.767Z,24.93
2017-04-08T13:45:02.172Z,25.22
2017-04-08T13:46:06.932Z,23.28
2017-04-08T13:47:13.348Z,27.92
2017-04-08T13:48:19.119Z,23.68
2017-04-08T13:49:24.812Z,22.03
2017-04-08T13:50:30.457Z,22.62
2017-04-08T13:51:35.345Z,22.57
2017-04-08T13:52:41.776Z,23.37
2017-04-08T13:53:50.457Z,23.87
2017-04-08T13:54:55.238Z,23.68
2017-04-08T13:55:59.958Z,22.92
2017-04-08T13:57:06.156Z,24.25
2017-04-08T13:58:11.972Z,22.45
2017-04-08T13:59:16.994Z,22.42
2017-04-08T14:00:22.617Z,21.97
2017-04-08T14:01:28.903Z,22.08
2017-04-08T14:02:34.841Z,21.70
2017-04-08T14:03:40.404Z,23.48
2017-04-08T14:04:45.262Z,21.90